Terminal Aerodrome Forecast
Issued by NWS Blacksburg, VA

Home | Current Version | Previous Version | Text Only | Print | Product List | Glossary On
Versions: 1 2 3 4 5 6 7 8 9 10 11 12
000
FTUS41 KRNK 232327
TAFLYH
TAF
KLYH 232327Z 2400/2424 03006KT P6SM SCT050
     FM241100 VRB03KT P6SM SCT040 SCT150
     FM241800 18005KT P6SM SCT050=

USA.gov is the U.S. government's official web portal to all federal, state and local government web resources and services.